Weather at Mukah Airport

Public forecast

Using degrees Celsius for public forecast. Weather courtesy of forecast.io.

Closest aviation weather report (METAR) to Mukah Airport

Closest report is Sibu Airport, 37.4 nm (69.3 km) S.

2024/05/27 23:00 (retrieved 14 minutes ago)

WBGS 272300Z VRB02KT 9999 FEW005 SCT016 25/25 Q1008

Closest aviation forecast (TAF) to Mukah Airport

Closest forecast is Sibu Airport, 37.4 nm (69.3 km) S.

2024/05/27 18:00 (retrieved 5 hours ago)

TAF WBGS 271700Z 2718/2818 VRB02KT 9999 FEW018 TEMPO 2719/2721 5000 +RA FEW005